createdAt,value
2018-11-22T00:00:00.786Z,19.83
2018-11-22T00:02:27.621Z,20.20
2018-11-22T00:04:54.458Z,19.20
2018-11-22T00:07:21.296Z,20.40
2018-11-22T00:09:48.131Z,20.47
2018-11-22T00:12:14.968Z,18.70
2018-11-22T00:14:41.888Z,18.70
2018-11-22T00:17:08.780Z,19.10
2018-11-22T00:19:35.615Z,20.30
2018-11-22T00:22:02.443Z,23.22
2018-11-22T00:24:29.272Z,20.13
2018-11-22T00:26:56.112Z,21.10
2018-11-22T00:29:22.951Z,19.93
2018-11-22T00:31:49.788Z,18.50
2018-11-22T00:34:16.620Z,21.03
2018-11-22T00:36:43.456Z,19.73
2018-11-22T00:39:11.251Z,20.13
2018-11-22T00:41:38.091Z,18.80
2018-11-22T00:44:04.964Z,20.20
2018-11-22T00:46:31.803Z,17.77
2018-11-22T00:48:58.649Z,19.67
2018-11-22T00:51:25.484Z,19.40
2018-11-22T00:53:52.308Z,20.37
2018-11-22T00:56:19.148Z,19.33
2018-11-22T00:58:45.988Z,20.10
2018-11-22T01:01:12.843Z,20.00
2018-11-22T01:03:39.680Z,19.87
2018-11-22T01:06:06.515Z,19.13
2018-11-22T01:08:33.356Z,18.60
2018-11-22T01:11:00.191Z,18.60
2018-11-22T01:13:27.027Z,19.47
2018-11-22T01:15:53.860Z,18.60
2018-11-22T01:18:20.702Z,19.37
2018-11-22T01:20:47.536Z,19.93
2018-11-22T01:23:14.383Z,19.47
2018-11-22T01:25:41.216Z,23.50
2018-11-22T01:28:08.048Z,20.70
2018-11-22T01:30:34.876Z,19.83
2018-11-22T01:33:01.735Z,20.10
2018-11-22T01:35:28.557Z,19.73
2018-11-22T01:37:55.385Z,23.27
2018-11-22T01:40:23.207Z,22.90
2018-11-22T01:42:50.043Z,20.10
2018-11-22T01:45:19.360Z,20.60
2018-11-22T01:47:46.188Z,19.30
2018-11-22T01:50:14.166Z,19.40
2018-11-22T01:52:41.312Z,20.17
2018-11-22T01:55:09.908Z,19.47
2018-11-22T01:57:36.812Z,23.77
2018-11-22T02:00:05.780Z,20.13
2018-11-22T02:02:32.608Z,20.17
2018-11-22T02:04:59.449Z,19.43
2018-11-22T02:07:26.299Z,19.43
2018-11-22T02:09:53.124Z,19.57
2018-11-22T02:12:19.979Z,19.00
2018-11-22T02:14:46.819Z,19.57
2018-11-22T02:17:13.657Z,19.67
2018-11-22T02:19:40.522Z,19.27
2018-11-22T02:22:07.356Z,19.67
2018-11-22T02:24:34.211Z,18.97
2018-11-22T02:27:01.051Z,23.30
2018-11-22T02:29:27.892Z,22.57
2018-11-22T02:31:54.734Z,19.90
2018-11-22T02:34:21.564Z,20.30
2018-11-22T02:36:48.409Z,18.50
2018-11-22T02:39:15.256Z,19.20
2018-11-22T02:41:42.101Z,23.10
2018-11-22T02:44:08.940Z,21.10
2018-11-22T02:46:35.780Z,21.40
2018-11-22T02:49:02.716Z,21.30
2018-11-22T02:51:29.557Z,20.50
2018-11-22T02:53:56.399Z,20.50
2018-11-22T02:56:23.248Z,23.95
2018-11-22T02:58:50.083Z,22.57
2018-11-22T03:01:16.924Z,21.10
2018-11-22T03:03:43.757Z,20.47
2018-11-22T03:06:10.596Z,23.75
2018-11-22T03:08:37.426Z,21.60
2018-11-22T03:11:04.987Z,21.43
2018-11-22T03:13:31.823Z,20.40
2018-11-22T03:15:58.668Z,20.20
2018-11-22T03:18:25.497Z,24.55
2018-11-22T03:20:52.340Z,22.00
2018-11-22T03:23:19.184Z,20.80
2018-11-22T03:25:46.016Z,20.33
2018-11-22T03:28:12.856Z,20.40
2018-11-22T03:30:39.692Z,20.57
2018-11-22T03:33:06.535Z,18.80
2018-11-22T03:35:33.373Z,24.52
2018-11-22T03:38:00.233Z,22.77
2018-11-22T03:40:27.232Z,23.70
2018-11-22T03:42:54.157Z,22.10
2018-11-22T03:45:21.492Z,21.00
2018-11-22T03:47:48.332Z,20.53
2018-11-22T03:50:17.128Z,19.60
2018-11-22T03:52:44.700Z,19.87
2018-11-22T03:55:12.784Z,20.80
2018-11-22T03:57:39.897Z,18.77
2018-11-22T04:00:08.748Z,18.60
2018-11-22T04:02:35.580Z,19.03
2018-11-22T04:05:02.446Z,19.70
2018-11-22T04:07:29.277Z,18.57
2018-11-22T04:09:56.131Z,23.75
2018-11-22T04:12:22.973Z,21.27
2018-11-22T04:14:49.808Z,23.87
2018-11-22T04:17:16.644Z,20.70
2018-11-22T04:19:43.484Z,24.15
2018-11-22T04:22:10.324Z,20.97
2018-11-22T04:24:37.165Z,20.77
2018-11-22T04:27:04.318Z,23.20
2018-11-22T04:29:31.152Z,25.52
2018-11-22T04:31:57.988Z,21.70
2018-11-22T04:34:24.816Z,25.62
2018-11-22T04:36:51.657Z,20.97
2018-11-22T04:39:18.503Z,21.60
2018-11-22T04:41:45.416Z,19.90
2018-11-22T04:44:12.275Z,19.03
2018-11-22T04:46:39.114Z,21.73
2018-11-22T04:49:05.940Z,19.90
2018-11-22T04:51:32.771Z,20.17
2018-11-22T04:53:59.755Z,20.50
2018-11-22T04:56:26.596Z,19.10
2018-11-22T04:58:53.571Z,19.47
2018-11-22T05:01:20.413Z,20.53
2018-11-22T05:03:47.240Z,20.07
2018-11-22T05:06:14.088Z,20.00
2018-11-22T05:08:40.921Z,20.70
2018-11-22T05:11:07.777Z,21.00
2018-11-22T05:13:34.610Z,24.25
2018-11-22T05:16:01.449Z,22.37
2018-11-22T05:18:28.285Z,22.00
2018-11-22T05:20:55.128Z,20.17
2018-11-22T05:23:22.051Z,20.90
2018-11-22T05:25:48.867Z,20.60
2018-11-22T05:28:15.703Z,19.97
2018-11-22T05:30:42.560Z,21.90
2018-11-22T05:33:09.401Z,25.43
2018-11-22T05:35:36.225Z,22.83
2018-11-22T05:38:03.072Z,21.20
2018-11-22T05:40:30.788Z,20.80
2018-11-22T05:42:57.097Z,20.33
2018-11-22T05:45:25.269Z,21.87
2018-11-22T05:47:52.101Z,21.00
2018-11-22T05:50:20.493Z,19.90
2018-11-22T05:52:47.735Z,18.57
2018-11-22T05:55:15.104Z,20.33
2018-11-22T05:57:41.940Z,20.07
2018-11-22T06:00:12.559Z,18.27
2018-11-22T06:02:39.412Z,19.50
2018-11-22T06:05:06.891Z,24.12
2018-11-22T06:07:33.765Z,21.37
2018-11-22T06:10:00.684Z,21.17
2018-11-22T06:12:27.553Z,23.52
2018-11-22T06:14:54.423Z,22.30
2018-11-22T06:17:21.276Z,20.57
2018-11-22T06:19:48.148Z,21.10
2018-11-22T06:22:15.021Z,18.40
2018-11-22T06:24:41.887Z,21.00
2018-11-22T06:27:08.760Z,19.20
2018-11-22T06:29:35.599Z,19.20
2018-11-22T06:32:02.457Z,21.17
2018-11-22T06:34:29.365Z,19.03
2018-11-22T06:36:56.237Z,20.00
2018-11-22T06:39:23.112Z,19.07
2018-11-22T06:41:49.992Z,19.40
2018-11-22T06:44:16.853Z,21.37
2018-11-22T06:46:43.737Z,18.50
2018-11-22T06:49:10.605Z,19.83
2018-11-22T06:51:37.493Z,20.30
2018-11-22T06:54:04.688Z,22.37
2018-11-22T06:56:31.535Z,21.10
2018-11-22T06:58:58.402Z,21.07
2018-11-22T07:01:25.259Z,21.13
2018-11-22T07:03:52.124Z,19.70
2018-11-22T07:06:19.076Z,19.93
2018-11-22T07:08:45.976Z,18.97
2018-11-22T07:11:12.830Z,20.33
2018-11-22T07:13:39.699Z,20.37
2018-11-22T07:16:06.560Z,19.60
2018-11-22T07:18:33.428Z,20.40
2018-11-22T07:21:00.300Z,19.50
2018-11-22T07:23:27.164Z,23.40
2018-11-22T07:25:54.078Z,20.40
2018-11-22T07:28:20.939Z,19.83
2018-11-22T07:30:47.809Z,21.73
2018-11-22T07:33:14.685Z,19.67
2018-11-22T07:35:41.562Z,19.40
2018-11-22T07:38:08.940Z,23.70
2018-11-22T07:40:35.984Z,21.23
2018-11-22T07:43:03.280Z,20.43
2018-11-22T07:45:32.017Z,19.30
2018-11-22T07:47:59.889Z,19.13
2018-11-22T07:50:26.758Z,20.47
2018-11-22T07:52:56.039Z,19.30
2018-11-22T07:55:21.136Z,20.47
2018-11-22T07:57:48.024Z,19.53
2018-11-22T08:00:18.424Z,19.23
2018-11-22T08:02:46.265Z,19.33
2018-11-22T08:05:13.795Z,19.93
2018-11-22T08:07:41.319Z,20.53
2018-11-22T08:10:09.781Z,22.33
2018-11-22T08:12:36.699Z,24.00
2018-11-22T08:15:04.109Z,20.97
2018-11-22T08:17:30.975Z,22.87
2018-11-22T08:19:57.809Z,21.90
2018-11-22T08:22:24.710Z,21.43
2018-11-22T08:24:51.502Z,21.40
2018-11-22T08:27:18.444Z,21.50
2018-11-22T08:29:45.308Z,21.80
2018-11-22T08:32:12.157Z,22.07
2018-11-22T08:34:39.065Z,23.00
2018-11-22T08:37:05.950Z,21.60
2018-11-22T08:39:32.825Z,26.48
2018-11-22T08:41:59.684Z,23.30
2018-11-22T08:44:26.612Z,21.40
2018-11-22T08:46:53.484Z,21.17
2018-11-22T08:49:20.363Z,21.80
2018-11-22T08:51:47.232Z,21.40
2018-11-22T08:54:14.181Z,21.17
2018-11-22T08:56:41.038Z,22.40
2018-11-22T08:59:07.941Z,21.17
2018-11-22T09:01:34.834Z,22.07
2018-11-22T09:04:01.733Z,22.67
2018-11-22T09:06:28.609Z,17.13
2018-11-22T09:08:55.720Z,20.27
2018-11-22T09:11:22.589Z,20.47
2018-11-22T09:13:49.452Z,19.63
2018-11-22T09:16:16.327Z,19.60
2018-11-22T09:18:43.184Z,19.47
2018-11-22T09:21:10.067Z,19.00
2018-11-22T09:23:38.525Z,19.90
2018-11-22T09:26:04.082Z,18.23
2018-11-22T09:28:30.964Z,21.30
2018-11-22T09:30:57.845Z,19.70
2018-11-22T09:33:24.714Z,17.60
2018-11-22T09:35:51.583Z,16.57
2018-11-22T09:38:18.462Z,22.00
2018-11-22T09:40:45.338Z,18.23
2018-11-22T09:43:12.208Z,16.20
2018-11-22T09:45:39.897Z,17.00
2018-11-22T09:48:06.764Z,19.90
2018-11-22T09:50:33.627Z,19.50
2018-11-22T09:53:01.765Z,17.30
2018-11-22T09:55:29.209Z,18.40
2018-11-22T09:57:56.073Z,17.73
2018-11-22T10:00:23.322Z,17.67
2018-11-22T10:02:50.233Z,17.93
2018-11-22T10:05:18.524Z,19.20
2018-11-22T10:07:45.339Z,19.37
2018-11-22T10:10:13.847Z,17.50
2018-11-22T10:12:40.739Z,18.13
2018-11-22T10:15:09.166Z,18.67
2018-11-22T10:17:36.155Z,16.63
2018-11-22T10:20:03.324Z,17.50
2018-11-22T10:22:30.294Z,17.03
2018-11-22T10:24:57.250Z,17.23
2018-11-22T10:27:24.115Z,17.90
2018-11-22T10:29:51.006Z,16.93
2018-11-22T10:32:17.878Z,18.33
2018-11-22T10:34:44.755Z,16.50
2018-11-22T10:37:11.631Z,16.93
2018-11-22T10:39:38.508Z,17.70
2018-11-22T10:42:05.877Z,19.00
2018-11-22T10:44:32.757Z,15.93
2018-11-22T10:46:59.647Z,17.97
2018-11-22T10:49:26.524Z,19.37
2018-11-22T10:51:53.400Z,17.47
2018-11-22T10:54:20.280Z,17.03
2018-11-22T10:56:47.180Z,15.87
2018-11-22T10:59:14.073Z,17.17
2018-11-22T11:01:46.655Z,21.82
2018-11-22T11:04:19.307Z,18.40
2018-11-22T11:06:50.783Z,17.87
2018-11-22T11:09:17.752Z,20.60
2018-11-22T11:11:44.616Z,17.53
2018-11-22T11:14:11.472Z,18.33
2018-11-22T11:16:38.329Z,18.80
2018-11-22T11:19:05.280Z,17.60
2018-11-22T11:21:32.109Z,17.77
2018-11-22T11:23:58.991Z,19.93
2018-11-22T11:26:25.889Z,17.30
2018-11-22T11:28:52.732Z,17.93
2018-11-22T11:31:19.572Z,21.10
2018-11-22T11:33:46.414Z,18.50
2018-11-22T11:36:17.824Z,21.87
2018-11-22T11:38:40.199Z,22.45
2018-11-22T11:41:07.055Z,22.30
2018-11-22T11:43:33.960Z,19.70
2018-11-22T11:46:00.811Z,20.47
2018-11-22T11:48:27.698Z,18.50
2018-11-22T11:50:54.584Z,18.97
2018-11-22T11:53:25.164Z,17.17
2018-11-22T11:55:48.356Z,17.70
2018-11-22T11:58:15.236Z,19.43
2018-11-22T12:00:43.471Z,18.20
2018-11-22T12:03:10.399Z,22.87
2018-11-22T12:05:37.297Z,20.23
2018-11-22T12:08:04.268Z,20.20
2018-11-22T12:10:31.131Z,18.00
2018-11-22T12:12:58.000Z,19.50
2018-11-22T12:15:25.131Z,18.37
2018-11-22T12:17:51.969Z,21.00
2018-11-22T12:20:19.115Z,17.00
2018-11-22T12:22:50.179Z,19.00
2018-11-22T12:25:18.439Z,17.87
2018-11-22T12:27:46.507Z,19.20
2018-11-22T12:30:15.696Z,19.73
2018-11-22T12:32:58.008Z,19.87
2018-11-22T12:35:30.588Z,18.60
2018-11-22T12:38:03.152Z,17.67
2018-11-22T12:40:30.182Z,19.20
2018-11-22T12:42:57.080Z,17.90
2018-11-22T12:45:24.423Z,17.67
2018-11-22T12:47:51.379Z,18.87
2018-11-22T12:50:18.319Z,18.23
2018-11-22T12:52:45.172Z,18.70
2018-11-22T12:55:12.051Z,19.90
2018-11-22T12:57:38.903Z,17.87
2018-11-22T13:00:11.243Z,18.77
2018-11-22T13:02:38.288Z,18.10
2018-11-22T13:05:06.603Z,16.83
2018-11-22T13:07:33.488Z,19.00
2018-11-22T13:10:00.384Z,17.83
2018-11-22T13:12:27.231Z,18.47
2018-11-22T13:14:54.095Z,18.23
2018-11-22T13:17:20.936Z,17.10
2018-11-22T13:19:47.804Z,17.60
2018-11-22T13:22:14.664Z,18.97
2018-11-22T13:24:41.530Z,17.27
2018-11-22T13:27:08.380Z,19.57
2018-11-22T13:29:35.204Z,21.60
2018-11-22T13:32:02.053Z,18.50
2018-11-22T13:34:28.933Z,19.33
2018-11-22T13:36:55.776Z,16.77
2018-11-22T13:39:22.603Z,19.40
2018-11-22T13:41:49.575Z,16.90
2018-11-22T13:44:16.482Z,18.57
2018-11-22T13:46:43.355Z,18.30
2018-11-22T13:49:10.260Z,17.37
2018-11-22T13:51:37.157Z,16.87
2018-11-22T13:54:04.375Z,20.50
2018-11-22T13:56:31.239Z,21.50
2018-11-22T13:58:58.075Z,20.45
2018-11-22T14:01:24.931Z,19.43
2018-11-22T14:03:51.782Z,18.27
2018-11-22T14:06:18.802Z,17.17
2018-11-22T14:08:45.647Z,17.63
2018-11-22T14:11:14.060Z,16.97
2018-11-22T14:13:39.444Z,18.10
2018-11-22T14:16:06.291Z,16.30
2018-11-22T14:18:33.144Z,16.93
2018-11-22T14:20:59.988Z,16.90
2018-11-22T14:23:26.831Z,18.47
2018-11-22T14:25:53.818Z,17.90
2018-11-22T14:28:20.656Z,18.43
2018-11-22T14:30:48.381Z,20.20
2018-11-22T14:33:15.501Z,18.83
2018-11-22T14:35:42.430Z,18.73
2018-11-22T14:38:09.505Z,17.13
2018-11-22T14:40:36.912Z,18.50
2018-11-22T14:43:03.935Z,20.68
2018-11-22T14:45:31.579Z,21.60
2018-11-22T14:47:59.844Z,18.90
2018-11-22T14:50:29.431Z,18.17
2018-11-22T14:53:01.533Z,18.20
2018-11-22T14:55:28.416Z,17.20
2018-11-22T14:57:55.305Z,17.97
2018-11-22T15:00:22.184Z,20.48
2018-11-22T15:02:49.060Z,19.03
2018-11-22T15:05:16.255Z,20.12
2018-11-22T15:07:43.601Z,17.67
2018-11-22T15:10:14.741Z,18.63
2018-11-22T15:12:42.721Z,17.63
2018-11-22T15:15:12.649Z,16.47
2018-11-22T15:17:39.895Z,18.40
2018-11-22T15:20:08.257Z,16.83
2018-11-22T15:22:35.147Z,17.77
2018-11-22T15:25:02.091Z,17.70
2018-11-22T15:27:28.966Z,16.37
2018-11-22T15:29:55.843Z,18.13
2018-11-22T15:32:22.721Z,17.60
2018-11-22T15:34:49.643Z,17.57
2018-11-22T15:37:16.521Z,17.70
2018-11-22T15:39:43.379Z,18.90
2018-11-22T15:42:10.256Z,20.80
2018-11-22T15:44:37.141Z,18.50
2018-11-22T15:47:04.564Z,19.13
2018-11-22T15:49:31.447Z,20.40
2018-11-22T15:51:58.316Z,17.40
2018-11-22T15:54:25.245Z,18.63
2018-11-22T15:56:52.135Z,18.27
2018-11-22T15:59:19.036Z,19.37
2018-11-22T16:01:46.043Z,18.00
2018-11-22T16:04:12.924Z,16.50
2018-11-22T16:06:39.788Z,17.13
2018-11-22T16:09:07.969Z,17.00
2018-11-22T16:11:34.847Z,20.67
2018-11-22T16:14:01.722Z,17.10
2018-11-22T16:16:28.604Z,18.37
2018-11-22T16:18:55.472Z,17.43
2018-11-22T16:21:22.380Z,17.17
2018-11-22T16:23:49.256Z,17.63
2018-11-22T16:26:16.140Z,16.43
2018-11-22T16:28:43.041Z,16.63
2018-11-22T16:31:09.948Z,16.73
2018-11-22T16:33:36.825Z,18.10
2018-11-22T16:36:03.770Z,17.30
2018-11-22T16:38:30.628Z,17.30
2018-11-22T16:40:57.562Z,17.47
2018-11-22T16:43:24.412Z,17.20
2018-11-22T16:45:51.308Z,18.00
2018-11-22T16:48:18.207Z,18.70
2018-11-22T16:50:45.152Z,18.17
2018-11-22T16:53:12.012Z,21.45
2018-11-22T16:55:38.868Z,19.43
2018-11-22T16:58:06.239Z,21.90
2018-11-22T17:00:35.357Z,21.90
2018-11-22T17:03:04.638Z,17.00
2018-11-22T17:05:31.900Z,22.75
2018-11-22T17:07:59.551Z,19.80
2018-11-22T17:10:27.550Z,18.03
2018-11-22T17:12:55.605Z,24.43
2018-11-22T17:15:24.189Z,22.17
2018-11-22T17:17:51.554Z,23.02
2018-11-22T17:20:19.407Z,25.27
2018-11-22T17:22:47.064Z,20.43
2018-11-22T17:25:16.389Z,20.90
2018-11-22T17:27:44.040Z,22.85
2018-11-22T17:30:13.211Z,22.47
2018-11-22T17:32:40.531Z,24.60
2018-11-22T17:35:08.868Z,22.90
2018-11-22T17:37:35.731Z,24.90
2018-11-22T17:40:03.096Z,25.97
2018-11-22T17:42:29.945Z,24.13
2018-11-22T17:44:56.917Z,25.30
2018-11-22T17:47:23.803Z,21.97
2018-11-22T17:49:50.680Z,26.30
2018-11-22T17:52:17.535Z,23.27
2018-11-22T17:54:44.384Z,26.80
2018-11-22T17:57:11.267Z,23.20
2018-11-22T17:59:38.207Z,26.50
2018-11-22T18:02:05.299Z,22.03
2018-11-22T18:04:32.184Z,26.62
2018-11-22T18:06:59.069Z,23.33
2018-11-22T18:09:25.949Z,25.92
2018-11-22T18:11:52.856Z,22.23
2018-11-22T18:14:19.703Z,26.85
2018-11-22T18:16:46.618Z,24.53
2018-11-22T18:19:13.534Z,28.12
2018-11-22T18:21:40.387Z,24.50
2018-11-22T18:24:07.223Z,27.42
2018-11-22T18:26:34.095Z,23.63
2018-11-22T18:29:00.932Z,27.00
2018-11-22T18:31:27.783Z,24.87
2018-11-22T18:33:54.707Z,26.45
2018-11-22T18:36:21.599Z,24.90
2018-11-22T18:38:48.456Z,28.62
2018-11-22T18:41:15.309Z,22.60
2018-11-22T18:43:42.204Z,25.82
2018-11-22T18:46:09.060Z,27.30
2018-11-22T18:48:35.921Z,24.70
2018-11-22T18:51:02.761Z,28.15
2018-11-22T18:53:29.596Z,27.77
2018-11-22T18:55:56.448Z,25.37
2018-11-22T18:58:23.275Z,27.42
2018-11-22T19:00:50.121Z,26.40
2018-11-22T19:03:18.191Z,23.27
2018-11-22T19:05:45.070Z,26.12
2018-11-22T19:08:11.966Z,26.93
2018-11-22T19:10:39.903Z,24.60
2018-11-22T19:13:07.756Z,26.93
2018-11-22T19:15:36.147Z,24.27
2018-11-22T19:18:03.438Z,27.05
2018-11-22T19:20:32.040Z,24.30
2018-11-22T19:22:59.847Z,25.67
2018-11-22T19:25:26.747Z,27.67
2018-11-22T19:27:55.339Z,23.30
2018-11-22T19:30:23.559Z,26.75
2018-11-22T19:32:51.406Z,26.07
2018-11-22T19:35:19.601Z,23.27
2018-11-22T19:37:46.790Z,26.80
2018-11-22T19:40:15.991Z,29.50
2018-11-22T19:42:44.004Z,24.80
2018-11-22T19:45:12.484Z,27.82
2018-11-22T19:47:39.470Z,23.63
2018-11-22T19:50:08.951Z,27.67
2018-11-22T19:52:35.831Z,27.25
2018-11-22T19:55:02.765Z,23.77
2018-11-22T19:57:29.719Z,26.00
2018-11-22T19:59:56.555Z,25.23
2018-11-22T20:02:23.399Z,22.90
2018-11-22T20:04:50.243Z,24.98
2018-11-22T20:07:17.103Z,22.50
2018-11-22T20:09:43.963Z,24.32
2018-11-22T20:12:10.815Z,22.80
2018-11-22T20:14:37.709Z,25.90
2018-11-22T20:17:04.624Z,22.20
2018-11-22T20:19:31.471Z,25.30
2018-11-22T20:21:58.331Z,25.15
2018-11-22T20:24:25.243Z,22.20
2018-11-22T20:26:52.096Z,24.40
2018-11-22T20:29:18.982Z,26.60
2018-11-22T20:31:46.412Z,23.80
2018-11-22T20:34:12.739Z,25.35
2018-11-22T20:36:39.667Z,25.25
2018-11-22T20:39:08.440Z,22.30
2018-11-22T20:41:35.284Z,24.40
2018-11-22T20:44:02.120Z,25.60
2018-11-22T20:46:28.959Z,21.83
2018-11-22T20:48:55.795Z,25.92
2018-11-22T20:51:22.635Z,25.37
2018-11-22T20:53:49.484Z,23.00
2018-11-22T20:56:16.332Z,25.82
2018-11-22T20:58:43.168Z,27.55
2018-11-22T21:01:10.003Z,24.27
2018-11-22T21:03:36.839Z,26.40
2018-11-22T21:06:04.163Z,28.52
2018-11-22T21:08:31.051Z,21.63
2018-11-22T21:10:57.967Z,25.62
2018-11-22T21:13:24.825Z,26.77
2018-11-22T21:15:51.666Z,22.43
2018-11-22T21:18:18.507Z,27.20
2018-11-22T21:20:45.343Z,26.40
2018-11-22T21:23:12.187Z,23.37
2018-11-22T21:25:39.092Z,25.10
2018-11-22T21:28:06.137Z,26.77
2018-11-22T21:30:34.303Z,23.30
2018-11-22T21:33:01.639Z,26.35
2018-11-22T21:35:28.609Z,26.17
2018-11-22T21:37:56.359Z,23.80
2018-11-22T21:40:23.871Z,25.92
2018-11-22T21:42:50.745Z,27.00
2018-11-22T21:45:19.031Z,24.50
2018-11-22T21:47:45.903Z,25.52
2018-11-22T21:50:13.866Z,25.85
2018-11-22T21:52:40.724Z,24.00
2018-11-22T21:55:09.298Z,25.30
2018-11-22T21:57:37.019Z,25.15
2018-11-22T22:00:05.760Z,23.50
2018-11-22T22:02:32.620Z,25.77
2018-11-22T22:04:59.473Z,25.43
2018-11-22T22:07:26.327Z,22.23
2018-11-22T22:09:53.691Z,23.83
2018-11-22T22:12:20.535Z,23.73
2018-11-22T22:14:47.374Z,24.45
2018-11-22T22:17:14.211Z,26.48
2018-11-22T22:19:41.064Z,21.50
2018-11-22T22:22:07.908Z,23.92
2018-11-22T22:24:34.727Z,24.23
2018-11-22T22:27:01.583Z,21.50
2018-11-22T22:29:28.429Z,25.02
2018-11-22T22:31:55.487Z,24.72
2018-11-22T22:34:22.331Z,20.83
2018-11-22T22:36:49.168Z,25.62
2018-11-22T22:39:16.000Z,26.23
2018-11-22T22:41:42.877Z,21.00
2018-11-22T22:44:09.743Z,24.12
2018-11-22T22:46:36.627Z,20.40
2018-11-22T22:49:03.515Z,24.72
2018-11-22T22:51:30.347Z,25.15
2018-11-22T22:53:57.211Z,21.20
2018-11-22T22:56:24.054Z,23.27
2018-11-22T22:58:50.903Z,24.67
2018-11-22T23:01:17.751Z,19.73
2018-11-22T23:03:44.584Z,24.05
2018-11-22T23:06:11.408Z,24.25
2018-11-22T23:08:38.258Z,21.20
2018-11-22T23:11:05.093Z,22.80
2018-11-22T23:13:31.939Z,23.65
2018-11-22T23:15:58.792Z,20.40
2018-11-22T23:18:25.634Z,24.20
2018-11-22T23:20:52.479Z,21.00
2018-11-22T23:23:19.329Z,23.60
2018-11-22T23:25:46.165Z,24.30
2018-11-22T23:28:12.999Z,23.55
2018-11-22T23:30:39.839Z,20.97
2018-11-22T23:33:07.771Z,22.67
2018-11-22T23:35:34.668Z,23.55
2018-11-22T23:38:01.539Z,21.47
2018-11-22T23:40:29.536Z,22.73
2018-11-22T23:42:56.387Z,24.05
2018-11-22T23:45:24.756Z,20.33
2018-11-22T23:47:51.607Z,22.98
2018-11-22T23:50:19.664Z,23.90
2018-11-22T23:52:47.649Z,21.97
2018-11-22T23:55:14.545Z,24.43
2018-11-22T23:57:41.423Z,23.12
